createdAt,value
2022-07-25T04:02:17.499Z,100482.83
2022-07-25T04:04:47.325Z,100483.77
2022-07-25T04:07:16.731Z,100479.30
2022-07-25T04:09:46.164Z,100477.69
2022-07-25T04:12:15.494Z,100479.41
2022-07-25T04:14:43.916Z,100480.06
2022-07-25T04:17:13.035Z,100476.15
2022-07-25T04:19:42.617Z,100471.55
2022-07-25T04:22:12.083Z,100474.92
2022-07-25T04:24:41.585Z,100476.27
2022-07-25T04:27:11.140Z,100473.22
2022-07-25T04:29:40.481Z,100469.66
2022-07-25T04:32:09.615Z,100468.54
2022-07-25T04:34:38.452Z,100461.65
2022-07-25T04:37:07.689Z,100455.29
2022-07-25T04:39:37.023Z,100452.96
2022-07-25T04:42:06.168Z,100449.98
2022-07-25T04:44:35.231Z,100450.29
2022-07-25T04:47:04.410Z,100448.30
2022-07-25T04:49:46.843Z,100441.95
2022-07-25T04:52:16.095Z,100439.96
2022-07-25T04:54:45.571Z,100435.52
2022-07-25T04:57:15.087Z,100428.48
2022-07-25T04:59:45.275Z,100425.48
2022-07-25T05:02:14.848Z,100414.74
2022-07-25T05:04:45.483Z,100406.67
2022-07-25T05:07:16.405Z,100398.86
2022-07-25T05:09:46.636Z,100393.61
2022-07-25T05:12:15.778Z,100394.16
2022-07-25T05:14:45.497Z,100397.38
2022-07-25T05:17:14.692Z,100394.38
2022-07-25T05:19:43.316Z,100387.84
2022-07-25T05:22:11.846Z,100389.50
2022-07-25T05:24:40.673Z,100386.09
2022-07-25T05:27:10.170Z,100382.14
2022-07-25T05:29:40.022Z,100380.24
2022-07-25T05:32:09.374Z,100379.81
2022-07-25T05:34:38.698Z,100376.36
2022-07-25T05:37:08.074Z,100374.08
2022-07-25T05:39:40.196Z,100381.40
2022-07-25T05:42:09.635Z,100384.20
2022-07-25T05:44:39.086Z,100383.83
2022-07-25T05:47:12.344Z,100378.22
2022-07-25T05:49:41.660Z,100380.59
2022-07-25T05:52:13.315Z,100377.84
2022-07-25T05:54:43.804Z,100376.00
2022-07-25T05:57:13.532Z,100381.61
2022-07-25T05:59:42.952Z,100382.11
2022-07-25T06:02:12.464Z,100389.27
2022-07-25T06:04:41.742Z,100380.79
2022-07-25T06:07:16.808Z,100377.52
2022-07-25T06:09:47.089Z,100373.21
2022-07-25T06:12:19.294Z,100372.88
2022-07-25T06:14:48.772Z,100365.02
2022-07-25T06:17:18.669Z,100367.59
2022-07-25T06:19:47.533Z,100361.09
2022-07-25T06:22:16.182Z,100359.21
2022-07-25T06:24:44.910Z,100357.15
2022-07-25T06:27:18.481Z,100353.84
2022-07-25T06:29:48.966Z,100353.37
2022-07-25T06:32:17.742Z,100352.77
2022-07-25T06:34:46.486Z,100353.70
2022-07-25T06:37:16.359Z,100351.40
2022-07-25T06:39:46.128Z,100351.52
2022-07-25T06:42:14.965Z,100348.30
2022-07-25T06:44:45.390Z,100345.42
2022-07-25T06:47:14.103Z,100342.88
2022-07-25T06:49:43.404Z,100346.02
2022-07-25T06:52:12.676Z,100341.38
2022-07-25T06:54:42.024Z,100341.48
2022-07-25T06:57:11.504Z,100338.38
2022-07-25T06:59:40.832Z,100338.39
2022-07-25T07:02:10.267Z,100341.19
2022-07-25T07:04:39.606Z,100336.02
2022-07-25T07:07:08.564Z,100334.78
2022-07-25T07:09:37.512Z,100335.01
2022-07-25T07:12:06.662Z,100339.47
2022-07-25T07:14:35.956Z,100344.40
2022-07-25T07:17:05.524Z,100342.65
2022-07-25T07:19:34.994Z,100338.55
2022-07-25T07:22:04.191Z,100339.36
2022-07-25T07:24:33.640Z,100336.80
2022-07-25T07:27:02.487Z,100332.77
2022-07-25T07:29:31.537Z,100324.61
2022-07-25T07:32:00.243Z,100322.33
2022-07-25T07:34:28.933Z,100322.34
2022-07-25T07:36:57.973Z,100317.27
2022-07-25T07:39:26.606Z,100317.20
2022-07-25T07:41:55.609Z,100313.41
2022-07-25T07:44:24.688Z,100316.66
2022-07-25T07:46:53.548Z,100313.59
2022-07-25T07:49:23.009Z,100309.00
2022-07-25T07:51:51.518Z,100310.02
2022-07-25T07:54:39.910Z,100307.36
2022-07-25T07:57:08.845Z,100306.11
2022-07-25T07:59:37.789Z,100306.91
2022-07-25T08:02:07.214Z,100304.23
2022-07-25T08:04:36.177Z,100307.02
2022-07-25T08:07:05.048Z,100306.66
2022-07-25T08:09:33.843Z,100314.41
2022-07-25T08:12:02.504Z,100313.01
2022-07-25T08:14:31.220Z,100310.56
2022-07-25T08:17:00.414Z,100307.72
2022-07-25T08:19:29.206Z,100303.83
2022-07-25T08:21:57.861Z,100310.67
2022-07-25T08:24:26.407Z,100308.59
2022-07-25T08:26:55.041Z,100306.32
2022-07-25T08:29:28.006Z,100307.55
2022-07-25T08:31:57.194Z,100301.73
2022-07-25T08:34:25.787Z,100301.34
2022-07-25T08:36:55.211Z,100300.89
2022-07-25T08:39:26.850Z,100296.74
2022-07-25T08:41:56.620Z,100293.17
2022-07-25T08:44:31.452Z,100294.45
2022-07-25T08:47:01.134Z,100292.69
2022-07-25T08:49:30.531Z,100290.02
2022-07-25T08:52:00.598Z,100289.30
2022-07-25T08:54:32.101Z,100285.45
2022-07-25T08:57:03.222Z,100280.44
2022-07-25T08:59:33.076Z,100281.00
2022-07-25T09:02:07.497Z,100278.89
2022-07-25T09:04:38.271Z,100280.62
2022-07-25T09:07:08.659Z,100276.35
2022-07-25T09:09:41.735Z,100273.71
2022-07-25T09:12:10.855Z,100270.70
2022-07-25T09:14:45.178Z,100267.69
2022-07-25T09:17:22.519Z,100267.75
2022-07-25T09:20:07.049Z,100269.90
2022-07-25T09:22:46.671Z,100270.64
2022-07-25T09:25:27.734Z,100262.94
2022-07-25T09:28:19.774Z,100258.59
2022-07-25T09:31:01.652Z,100259.08
2022-07-25T09:42:19.752Z,100247.98
2022-07-25T09:45:00.750Z,100249.79
2022-07-25T09:47:33.091Z,100247.56
2022-07-25T09:50:02.417Z,100251.52
2022-07-25T09:52:32.007Z,100248.49
2022-07-25T09:55:04.425Z,100246.01
2022-07-25T09:57:34.103Z,100241.24
2022-07-25T10:00:07.965Z,100240.91
2022-07-25T10:03:09.591Z,100236.63
2022-07-25T10:06:18.356Z,100235.16
2022-07-25T10:08:49.666Z,100224.94
2022-07-25T10:11:22.673Z,100228.56
2022-07-25T10:13:58.069Z,100224.29
2022-07-25T10:16:28.550Z,100225.45
2022-07-25T10:18:59.365Z,100221.98
2022-07-25T10:21:32.322Z,100222.35
2022-07-25T10:24:10.836Z,100221.54
2022-07-25T10:26:52.931Z,100217.32
2022-07-25T10:29:22.170Z,100211.40
2022-07-25T10:31:52.149Z,100209.73
2022-07-25T10:34:34.047Z,100210.02
2022-07-25T10:37:12.534Z,100206.23
2022-07-25T10:39:46.627Z,100208.36
2022-07-25T10:42:17.837Z,100212.17
2022-07-25T10:44:50.833Z,100205.02
2022-07-25T10:47:24.850Z,100203.50
2022-07-25T10:50:25.183Z,100195.85
2022-07-25T10:53:03.450Z,100190.20
2022-07-25T10:55:37.418Z,100196.13
2022-07-25T10:58:17.633Z,100191.65
2022-07-25T11:00:48.178Z,100187.31
2022-07-25T11:03:18.546Z,100183.10
2022-07-25T11:05:49.123Z,100185.66
2022-07-25T11:08:22.943Z,100183.40
2022-07-25T11:10:53.885Z,100177.52
2022-07-25T11:13:23.387Z,100176.18
2022-07-25T11:15:56.795Z,100170.08
2022-07-25T11:18:34.586Z,100160.26
2022-07-25T11:21:07.556Z,100160.47
2022-07-25T11:23:41.878Z,100157.55
2022-07-25T11:26:13.982Z,100155.33
2022-07-25T11:28:50.874Z,100152.45
2022-07-25T11:31:24.663Z,100148.60
2022-07-25T11:33:55.425Z,100150.14
2022-07-25T11:36:25.557Z,100145.96
2022-07-25T11:38:56.508Z,100142.83
2022-07-25T11:41:30.977Z,100135.48
2022-07-25T11:44:00.213Z,100137.63
2022-07-25T11:46:44.937Z,100136.20
2022-07-25T11:49:15.350Z,100130.21
2022-07-25T11:51:44.546Z,100133.24
2022-07-25T11:54:14.203Z,100128.36
2022-07-25T11:56:52.735Z,100120.48
2022-07-25T11:59:22.572Z,100114.06
2022-07-25T12:01:52.424Z,100117.09
2022-07-25T12:04:22.378Z,100114.91
2022-07-25T12:06:52.070Z,100106.88
2022-07-25T12:09:22.963Z,100107.91
2022-07-25T12:12:04.353Z,100101.09
2022-07-25T12:14:44.779Z,100095.30
2022-07-25T12:17:13.784Z,100092.38
2022-07-25T12:19:47.681Z,100090.33
2022-07-25T12:22:21.653Z,100079.58
2022-07-25T12:24:56.678Z,100078.02
2022-07-25T12:31:21.932Z,100070.88
2022-07-25T12:33:50.559Z,100064.67
2022-07-25T12:36:27.552Z,100063.16
2022-07-25T12:39:05.756Z,100058.45
2022-07-25T12:41:41.477Z,100049.63
2022-07-25T12:44:13.298Z,100050.70
2022-07-25T12:46:53.609Z,100053.08
2022-07-25T12:49:30.233Z,100048.15
2022-07-25T12:52:15.397Z,100047.83
2022-07-25T12:55:04.106Z,100048.54
2022-07-25T13:00:33.619Z,100034.80
2022-07-25T13:03:04.999Z,100028.73
2022-07-25T13:05:34.115Z,100017.08
2022-07-25T13:08:07.510Z,100014.02
2022-07-25T13:10:35.849Z,100013.35
2022-07-25T13:13:04.176Z,100011.90
2022-07-25T13:15:35.901Z,100009.90
2022-07-25T13:18:04.926Z,100010.67
2022-07-25T13:20:37.355Z,100007.02
2022-07-25T13:23:09.278Z,100009.02
2022-07-25T13:25:38.354Z,100005.33
2022-07-25T13:28:10.878Z,100000.04
2022-07-25T13:30:40.157Z,99998.70
2022-07-25T13:33:10.998Z,99996.82
2022-07-25T13:35:40.350Z,99990.20
2022-07-25T13:38:13.174Z,99984.87
2022-07-25T13:40:47.240Z,99982.40
2022-07-25T13:43:19.678Z,99981.77
2022-07-25T13:45:49.821Z,99976.77
2022-07-25T13:48:30.322Z,99976.93
2022-07-25T13:51:09.746Z,99968.42
2022-07-25T13:53:45.854Z,99966.19
2022-07-25T13:56:22.557Z,99964.84
2022-07-25T13:58:53.358Z,99958.36
2022-07-25T14:01:24.262Z,99953.39
2022-07-25T14:03:56.389Z,99954.05
2022-07-25T14:06:28.420Z,99954.45
2022-07-25T14:08:58.662Z,99951.83
2022-07-25T14:11:30.635Z,99952.55
2022-07-25T14:14:00.077Z,99946.48
2022-07-25T14:16:29.730Z,99945.41
2022-07-25T14:18:59.054Z,99944.16
2022-07-25T14:21:28.427Z,99938.40
2022-07-25T14:23:57.899Z,99937.55
2022-07-25T14:26:28.451Z,99936.61
2022-07-25T14:28:57.687Z,99938.67
2022-07-25T14:31:27.354Z,99928.18
2022-07-25T14:33:55.879Z,99930.91
2022-07-25T14:36:26.806Z,99926.08
2022-07-25T14:38:58.440Z,99921.36
2022-07-25T14:41:28.253Z,99914.24
2022-07-25T14:44:00.629Z,99913.58
2022-07-25T14:46:30.080Z,99912.75
2022-07-25T14:48:59.001Z,99910.55
2022-07-25T14:51:29.112Z,99905.11
2022-07-25T14:53:58.196Z,99903.00
2022-07-25T14:56:27.430Z,99906.10
2022-07-25T14:58:56.568Z,99899.09
2022-07-25T15:01:32.386Z,99893.02
2022-07-25T15:04:02.600Z,99891.98
2022-07-25T15:06:32.586Z,99888.94
2022-07-25T15:09:01.736Z,99889.06
2022-07-25T15:11:31.108Z,99886.92
2022-07-25T15:14:02.193Z,99885.83
2022-07-25T15:16:33.717Z,99882.80
2022-07-25T15:19:16.371Z,99877.27
2022-07-25T15:21:48.660Z,99869.16
2022-07-25T15:24:17.802Z,99864.14
2022-07-25T15:26:46.349Z,99865.44
2022-07-25T15:29:20.814Z,99866.90
2022-07-25T15:31:51.858Z,99861.56
2022-07-25T15:34:20.975Z,99854.38
2022-07-25T15:36:50.015Z,99854.02
2022-07-25T15:39:20.170Z,99851.48
2022-07-25T15:41:49.234Z,99846.31
2022-07-25T15:44:18.391Z,99844.06
2022-07-25T15:46:48.482Z,99843.86
2022-07-25T15:49:17.089Z,99838.14
2022-07-25T15:51:46.713Z,99837.77
2022-07-25T15:54:16.438Z,99834.67
2022-07-25T15:56:46.279Z,99836.75
2022-07-25T15:59:15.728Z,99828.33
2022-07-25T16:01:45.181Z,99825.96
2022-07-25T16:04:16.650Z,99823.09
2022-07-25T16:06:46.174Z,99824.40
2022-07-25T16:09:16.553Z,99824.11
2022-07-25T16:11:46.077Z,99820.65
2022-07-25T16:14:15.482Z,99820.57
2022-07-25T16:16:45.514Z,99813.97
2022-07-25T16:19:14.998Z,99818.14
2022-07-25T16:21:44.722Z,99818.90
2022-07-25T16:24:15.137Z,99813.92
2022-07-25T16:26:44.439Z,99814.11
2022-07-25T16:29:13.935Z,99809.17
2022-07-25T16:31:44.220Z,99810.70
2022-07-25T16:34:13.521Z,99811.59
2022-07-25T16:36:42.864Z,99808.81
2022-07-25T16:39:11.598Z,99803.73
2022-07-25T16:41:41.517Z,99803.38
2022-07-25T16:44:10.926Z,99801.73
2022-07-25T16:46:39.983Z,99795.56
2022-07-25T16:49:09.675Z,99804.95
2022-07-25T16:51:41.479Z,99797.58
2022-07-25T16:54:11.161Z,99797.63
2022-07-25T16:56:40.399Z,99798.20
2022-07-25T16:59:11.500Z,99802.15
2022-07-25T17:01:41.155Z,99794.55
2022-07-25T17:04:10.366Z,99789.27
2022-07-25T17:06:41.698Z,99789.14
2022-07-25T17:09:12.425Z,99788.05
2022-07-25T17:11:43.891Z,99779.89
2022-07-25T17:14:13.293Z,99773.75
2022-07-25T17:16:44.243Z,99772.92
2022-07-25T17:19:13.509Z,99768.49
2022-07-25T17:21:43.421Z,99766.68
2022-07-25T17:24:17.710Z,99761.40
2022-07-25T17:26:49.273Z,99758.27
2022-07-25T17:29:19.556Z,99752.42
2022-07-25T17:31:49.718Z,99746.81
2022-07-25T17:34:19.160Z,99741.95
2022-07-25T17:36:48.173Z,99743.06
2022-07-25T17:39:16.568Z,99743.09
2022-07-25T17:41:45.141Z,99743.21
2022-07-25T17:44:14.027Z,99744.90
2022-07-25T17:46:44.610Z,99751.74
2022-07-25T17:49:13.336Z,99749.77
2022-07-25T17:51:42.128Z,99749.02
2022-07-25T17:54:11.515Z,99745.03
2022-07-25T17:56:48.599Z,99745.93
2022-07-25T17:59:19.819Z,99739.58
2022-07-25T18:01:48.487Z,99738.59
2022-07-25T18:04:18.747Z,99736.88
2022-07-25T18:06:47.220Z,99738.61
2022-07-25T18:09:20.742Z,99734.91
2022-07-25T18:11:50.818Z,99730.23
2022-07-25T18:14:22.566Z,99729.86
2022-07-25T18:16:52.631Z,99729.57
2022-07-25T18:19:26.142Z,99731.54
2022-07-25T18:21:55.879Z,99732.10
2022-07-25T18:24:29.544Z,99729.73
2022-07-25T18:27:01.240Z,99729.85
2022-07-25T18:29:33.969Z,99724.11
2022-07-25T18:32:09.494Z,99713.70
2022-07-25T18:34:40.277Z,99716.51
2022-07-25T18:37:11.179Z,99712.75
2022-07-25T18:39:44.410Z,99713.52
2022-07-25T18:42:13.639Z,99715.00
2022-07-25T18:44:42.783Z,99715.78
2022-07-25T18:47:12.379Z,99716.52
2022-07-25T18:49:47.273Z,99716.72
2022-07-25T18:52:31.187Z,99715.08
2022-07-25T18:55:02.501Z,99718.38
2022-07-25T18:57:32.505Z,99714.55
2022-07-25T19:00:13.106Z,99719.04
2022-07-25T19:02:44.875Z,99719.29
2022-07-25T19:05:15.308Z,99719.41
2022-07-25T19:07:48.101Z,99718.30
2022-07-25T19:10:19.407Z,99717.21
2022-07-25T19:12:48.840Z,99715.52
2022-07-25T19:15:17.865Z,99715.55
2022-07-25T19:17:47.623Z,99720.38
2022-07-25T19:20:16.866Z,99717.85
2022-07-25T19:22:48.976Z,99714.63
2022-07-25T19:25:22.428Z,99713.60
2022-07-25T19:27:52.900Z,99714.59
2022-07-25T19:30:25.006Z,99712.36
2022-07-25T19:32:54.224Z,99711.51
2022-07-25T19:35:26.417Z,99715.11
2022-07-25T19:37:56.284Z,99712.02
2022-07-25T19:40:27.597Z,99711.42
2022-07-25T19:42:57.605Z,99710.92
2022-07-25T19:48:18.578Z,99709.30
2022-07-25T19:50:50.242Z,99711.80
2022-07-25T19:53:28.117Z,99711.16
2022-07-25T19:56:00.502Z,99711.05
2022-07-25T19:58:34.205Z,99712.49
2022-07-25T20:01:08.106Z,99714.36
2022-07-25T20:03:37.506Z,99711.29
2022-07-25T20:06:15.167Z,99713.56
2022-07-25T20:08:46.976Z,99714.54
2022-07-25T20:11:17.342Z,99716.08
2022-07-25T20:13:46.855Z,99717.29
2022-07-25T20:16:21.804Z,99723.53
2022-07-25T20:18:52.162Z,99723.02
2022-07-25T20:21:22.829Z,99723.13
2022-07-25T20:23:51.940Z,99725.78
2022-07-25T20:26:22.792Z,99730.67
2022-07-25T20:28:57.271Z,99728.14
2022-07-25T20:31:28.252Z,99729.76
2022-07-25T20:33:59.026Z,99731.40
2022-07-25T20:36:33.453Z,99732.98
2022-07-25T20:39:01.996Z,99734.81
2022-07-25T20:41:30.622Z,99730.89
2022-07-25T20:43:59.815Z,99737.22
2022-07-25T20:46:28.850Z,99734.67
2022-07-25T20:48:59.338Z,99731.98
2022-07-25T20:51:27.971Z,99729.73
2022-07-25T20:53:58.838Z,99726.74
2022-07-25T20:56:28.543Z,99720.47
2022-07-25T20:58:58.265Z,99720.30
